createdAt,value
2019-03-09T00:00:35.098Z,73.68
2019-03-09T00:01:35.610Z,74.19
2019-03-09T00:02:38.391Z,73.88
2019-03-09T00:03:38.839Z,73.98
2019-03-09T00:04:41.434Z,74.08
2019-03-09T00:05:46.854Z,73.68
2019-03-09T00:07:24.192Z,73.88
2019-03-09T00:08:24.665Z,74.08
2019-03-09T00:09:26.394Z,74.08
2019-03-09T00:10:27.549Z,74.08
2019-03-09T00:11:35.684Z,73.88
2019-03-09T00:12:36.137Z,73.91
2019-03-09T00:13:38.668Z,74.19
2019-03-09T00:14:39.140Z,74.08
2019-03-09T00:16:15.173Z,73.98
2019-03-09T00:17:15.628Z,74.08
2019-03-09T00:18:16.097Z,73.88
2019-03-09T00:19:16.594Z,74.19
2019-03-09T00:20:17.054Z,74.29
2019-03-09T00:21:17.511Z,74.22
2019-03-09T00:22:17.966Z,74.08
2019-03-09T00:23:18.415Z,73.88
2019-03-09T00:24:18.926Z,73.88
2019-03-09T00:25:19.483Z,74.60
2019-03-09T00:26:19.934Z,74.60
2019-03-09T00:27:29.125Z,74.60
2019-03-09T00:28:26.785Z,74.60
2019-03-09T00:29:27.264Z,74.43
2019-03-09T00:30:27.719Z,74.53
2019-03-09T00:31:28.174Z,74.29
2019-03-09T00:32:28.613Z,74.33
2019-03-09T00:33:29.090Z,74.29
2019-03-09T00:34:29.564Z,74.53
2019-03-09T00:35:30.270Z,74.60
2019-03-09T00:36:30.722Z,74.70
2019-03-09T00:37:31.176Z,74.70
2019-03-09T00:38:31.623Z,74.29
2019-03-09T00:39:32.096Z,74.74
2019-03-09T00:40:32.559Z,74.74
2019-03-09T00:41:33.020Z,74.63
2019-03-09T00:42:33.476Z,74.95
2019-03-09T00:43:33.946Z,75.12
2019-03-09T00:44:34.567Z,74.63
2019-03-09T00:45:35.026Z,74.84
2019-03-09T00:46:35.546Z,74.84
2019-03-09T00:47:36.093Z,75.25
2019-03-09T00:48:36.541Z,75.32
2019-03-09T00:49:36.998Z,75.01
2019-03-09T00:50:37.447Z,74.95
2019-03-09T00:51:37.916Z,75.05
2019-03-09T00:52:38.440Z,75.56
2019-03-09T00:53:39.074Z,74.74
2019-03-09T00:54:39.609Z,74.84
2019-03-09T00:55:40.062Z,75.05
2019-03-09T00:56:40.505Z,74.95
2019-03-09T00:57:40.959Z,74.95
2019-03-09T00:58:41.406Z,75.05
2019-03-09T00:59:41.862Z,74.95
2019-03-09T01:00:42.990Z,74.84
2019-03-09T01:01:48.424Z,75.05
2019-03-09T01:02:50.951Z,75.35
2019-03-09T01:03:51.669Z,75.77
2019-03-09T01:04:52.134Z,75.87
2019-03-09T01:05:52.575Z,76.07
2019-03-09T01:06:53.016Z,75.56
2019-03-09T01:07:53.523Z,75.77
2019-03-09T01:08:53.959Z,76.07
2019-03-09T01:09:55.072Z,75.87
2019-03-09T01:10:55.523Z,76.49
2019-03-09T01:11:55.980Z,76.79
2019-03-09T01:12:56.423Z,76.39
2019-03-09T01:13:56.869Z,76.49
2019-03-09T01:14:57.326Z,76.59
2019-03-09T01:15:57.797Z,76.49
2019-03-09T01:16:58.245Z,76.90
2019-03-09T01:17:58.698Z,77.00
2019-03-09T01:18:59.141Z,76.70
2019-03-09T01:20:04.596Z,76.90
2019-03-09T01:21:05.041Z,76.90
2019-03-09T01:22:05.508Z,77.11
2019-03-09T01:23:06.018Z,76.79
2019-03-09T01:24:06.469Z,77.00
2019-03-09T01:25:06.944Z,77.31
2019-03-09T01:26:07.397Z,77.31
2019-03-09T01:27:07.986Z,77.42
2019-03-09T01:28:08.425Z,77.42
2019-03-09T01:29:08.949Z,77.31
2019-03-09T01:30:09.420Z,77.00
2019-03-09T01:31:10.029Z,77.62
2019-03-09T01:32:10.473Z,77.62
2019-03-09T01:33:10.923Z,77.62
2019-03-09T01:34:11.382Z,77.42
2019-03-09T01:35:11.873Z,77.42
2019-03-09T01:36:12.337Z,77.11
2019-03-09T01:37:12.784Z,77.83
2019-03-09T01:38:13.242Z,77.62
2019-03-09T01:39:13.728Z,77.83
2019-03-09T01:40:14.201Z,77.83
2019-03-09T01:41:14.651Z,77.83
2019-03-09T01:42:15.096Z,78.34
2019-03-09T01:43:15.532Z,78.24
2019-03-09T01:44:15.976Z,78.24
2019-03-09T01:45:16.442Z,78.55
2019-03-09T01:46:16.883Z,78.55
2019-03-09T01:47:17.391Z,78.34
2019-03-09T01:48:17.841Z,78.24
2019-03-09T01:49:18.289Z,79.06
2019-03-09T01:50:18.749Z,78.86
2019-03-09T01:51:19.468Z,78.86
2019-03-09T01:52:19.922Z,78.75
2019-03-09T01:53:20.371Z,78.96
2019-03-09T01:54:20.829Z,79.37
2019-03-09T01:55:21.283Z,79.47
2019-03-09T01:56:21.729Z,79.47
2019-03-09T01:57:22.166Z,79.47
2019-03-09T01:58:22.618Z,79.61
2019-03-09T01:59:23.081Z,80.54
2019-03-09T02:00:23.549Z,80.19
2019-03-09T02:01:23.995Z,80.44
2019-03-09T02:02:24.439Z,80.09
2019-03-09T02:03:24.880Z,79.58
2019-03-09T02:04:25.319Z,79.93
2019-03-09T02:05:25.778Z,79.88
2019-03-09T02:06:26.216Z,79.99
2019-03-09T02:07:26.661Z,80.19
2019-03-09T02:08:27.104Z,80.44
2019-03-09T02:09:27.540Z,80.95
2019-03-09T02:10:28.013Z,80.23
2019-03-09T02:11:28.492Z,80.54
2019-03-09T02:12:29.695Z,80.02
2019-03-09T02:13:30.135Z,80.40
2019-03-09T02:14:30.585Z,80.65
2019-03-09T02:15:31.036Z,80.54
2019-03-09T02:16:31.474Z,80.85
2019-03-09T02:17:31.922Z,80.75
2019-03-09T02:18:32.379Z,80.95
2019-03-09T02:19:32.836Z,81.23
2019-03-09T02:20:33.310Z,81.05
2019-03-09T02:21:33.764Z,81.02
2019-03-09T02:22:34.212Z,80.81
2019-03-09T02:23:34.655Z,80.95
2019-03-09T02:24:35.107Z,80.65
2019-03-09T02:25:35.571Z,81.37
2019-03-09T02:26:36.014Z,81.37
2019-03-09T02:27:36.467Z,81.57
2019-03-09T02:28:36.954Z,81.53
2019-03-09T02:29:37.425Z,81.47
2019-03-09T02:30:37.902Z,81.63
2019-03-09T02:31:38.358Z,81.74
2019-03-09T02:32:39.015Z,81.63
2019-03-09T02:33:39.484Z,81.95
2019-03-09T02:34:39.941Z,81.23
2019-03-09T02:35:40.432Z,82.19
2019-03-09T02:36:40.889Z,82.19
2019-03-09T02:37:41.385Z,82.25
2019-03-09T02:38:41.825Z,82.40
2019-03-09T02:39:42.274Z,82.09
2019-03-09T02:40:42.746Z,82.19
2019-03-09T02:41:43.194Z,82.35
2019-03-09T02:42:43.645Z,82.25
2019-03-09T02:43:44.111Z,82.56
2019-03-09T02:44:44.562Z,82.46
2019-03-09T02:45:45.033Z,82.35
2019-03-09T02:46:45.484Z,82.56
2019-03-09T02:47:45.930Z,82.56
2019-03-09T02:48:46.413Z,82.46
2019-03-09T02:49:46.859Z,82.77
2019-03-09T02:50:47.330Z,82.77
2019-03-09T02:51:47.773Z,82.67
2019-03-09T02:52:48.250Z,82.87
2019-03-09T02:53:48.705Z,83.14
2019-03-09T02:54:49.145Z,82.87
2019-03-09T02:55:49.868Z,83.07
2019-03-09T02:56:50.362Z,83.18
2019-03-09T02:57:50.814Z,82.97
2019-03-09T02:58:51.255Z,83.18
2019-03-09T02:59:51.780Z,83.28
2019-03-09T03:00:52.245Z,83.59
2019-03-09T03:01:52.699Z,83.07
2019-03-09T03:02:53.161Z,84.00
2019-03-09T03:03:53.607Z,83.45
2019-03-09T03:04:54.057Z,83.55
2019-03-09T03:05:54.543Z,83.55
2019-03-09T03:06:54.989Z,83.80
2019-03-09T03:07:55.453Z,83.90
2019-03-09T03:08:56.968Z,84.07
2019-03-09T03:09:57.459Z,83.97
2019-03-09T03:10:57.994Z,83.97
2019-03-09T03:11:58.439Z,84.27
2019-03-09T03:13:03.856Z,84.27
2019-03-09T03:14:04.322Z,84.17
2019-03-09T03:15:05.787Z,84.48
2019-03-09T03:16:06.263Z,84.79
2019-03-09T03:17:06.736Z,84.69
2019-03-09T03:18:07.202Z,84.48
2019-03-09T03:19:07.657Z,84.89
2019-03-09T03:20:08.102Z,84.99
2019-03-09T03:21:08.579Z,84.58
2019-03-09T03:22:09.029Z,84.58
2019-03-09T03:23:09.450Z,84.58
2019-03-09T03:24:09.897Z,84.79
2019-03-09T03:25:10.371Z,85.41
2019-03-09T03:26:10.840Z,85.10
2019-03-09T03:27:11.313Z,84.99
2019-03-09T03:28:11.823Z,85.61
2019-03-09T03:29:12.345Z,85.82
2019-03-09T03:30:12.788Z,85.47
2019-03-09T03:31:13.254Z,85.36
2019-03-09T03:32:13.698Z,85.51
2019-03-09T03:33:14.180Z,85.47
2019-03-09T03:34:14.654Z,85.47
2019-03-09T03:35:15.123Z,84.95
2019-03-09T03:36:15.589Z,85.98
2019-03-09T03:37:16.043Z,85.57
2019-03-09T03:38:16.501Z,85.78
2019-03-09T03:39:16.952Z,85.68
2019-03-09T03:40:17.401Z,85.68
2019-03-09T03:41:18.951Z,85.36
2019-03-09T03:42:19.396Z,85.47
2019-03-09T03:43:19.859Z,85.84
2019-03-09T03:44:20.326Z,86.29
2019-03-09T03:45:22.859Z,86.08
2019-03-09T03:46:23.331Z,86.19
2019-03-09T03:47:25.826Z,86.05
2019-03-09T03:48:26.708Z,86.19
2019-03-09T03:49:27.168Z,85.98
2019-03-09T03:50:27.618Z,86.19
2019-03-09T03:51:30.095Z,86.15
2019-03-09T03:52:30.542Z,85.88
2019-03-09T03:53:32.996Z,85.98
2019-03-09T03:54:33.438Z,85.53
2019-03-09T03:55:33.881Z,85.53
2019-03-09T03:56:34.328Z,85.63
2019-03-09T03:57:34.771Z,86.70
2019-03-09T03:58:35.225Z,86.70
2019-03-09T03:59:35.679Z,86.19
2019-03-09T04:00:36.123Z,86.25
2019-03-09T04:01:36.599Z,86.25
2019-03-09T04:02:37.056Z,86.46
2019-03-09T04:03:37.511Z,86.15
2019-03-09T04:04:37.989Z,86.35
2019-03-09T04:05:38.445Z,86.46
2019-03-09T04:06:39.084Z,86.56
2019-03-09T04:07:39.565Z,86.19
2019-03-09T04:08:40.029Z,86.05
2019-03-09T04:09:40.486Z,86.77
2019-03-09T04:10:40.946Z,86.56
2019-03-09T04:11:41.405Z,86.35
2019-03-09T04:12:41.882Z,86.08
2019-03-09T04:13:42.373Z,86.77
2019-03-09T04:14:42.848Z,86.05
2019-03-09T04:15:43.316Z,86.66
2019-03-09T04:16:43.789Z,86.77
2019-03-09T04:17:44.232Z,86.66
2019-03-09T04:18:44.675Z,86.87
2019-03-09T04:19:45.132Z,87.18
2019-03-09T04:20:45.578Z,86.87
2019-03-09T04:21:46.041Z,86.77
2019-03-09T04:22:46.496Z,87.28
2019-03-09T04:23:46.938Z,86.97
2019-03-09T04:24:47.385Z,87.18
2019-03-09T04:25:47.848Z,86.97
2019-03-09T04:26:48.345Z,86.97
2019-03-09T04:27:48.801Z,86.97
2019-03-09T04:28:49.241Z,86.97
2019-03-09T04:29:49.702Z,87.07
2019-03-09T04:30:50.169Z,87.38
2019-03-09T04:31:50.705Z,87.28
2019-03-09T04:32:51.149Z,87.49
2019-03-09T04:33:51.597Z,87.28
2019-03-09T04:34:52.036Z,87.49
2019-03-09T04:35:52.500Z,87.18
2019-03-09T04:36:53.192Z,87.07
2019-03-09T04:37:53.649Z,87.07
2019-03-09T04:38:54.160Z,87.07
2019-03-09T04:39:54.602Z,87.13
2019-03-09T04:40:55.039Z,87.07
2019-03-09T04:41:55.506Z,87.04
2019-03-09T04:42:55.950Z,87.04
2019-03-09T04:43:56.420Z,87.04
2019-03-09T04:44:56.862Z,87.13
2019-03-09T04:45:57.303Z,87.04
2019-03-09T04:46:57.757Z,87.13
2019-03-09T04:47:58.209Z,87.13
2019-03-09T04:48:58.650Z,87.04
2019-03-09T04:49:59.091Z,87.13
2019-03-09T04:50:59.544Z,86.93
2019-03-09T04:51:59.997Z,86.83
2019-03-09T04:53:00.439Z,86.93
2019-03-09T04:54:02.899Z,86.93
2019-03-09T04:55:03.414Z,86.32
2019-03-09T04:56:04.867Z,86.62
2019-03-09T04:57:05.339Z,86.21
2019-03-09T04:58:05.785Z,86.83
2019-03-09T04:59:06.230Z,86.52
2019-03-09T05:00:06.740Z,86.83
2019-03-09T05:01:07.184Z,86.83
2019-03-09T05:02:11.135Z,86.48
2019-03-09T05:03:11.595Z,86.83
2019-03-09T05:04:12.056Z,86.32
2019-03-09T05:05:12.495Z,86.52
2019-03-09T05:06:14.941Z,86.42
2019-03-09T05:07:15.392Z,87.04
2019-03-09T05:08:15.832Z,86.32
2019-03-09T05:09:16.282Z,86.62
2019-03-09T05:10:16.720Z,86.27
2019-03-09T05:11:17.180Z,86.93
2019-03-09T05:12:17.650Z,87.30
2019-03-09T05:13:18.104Z,87.34
2019-03-09T05:14:18.561Z,87.45
2019-03-09T05:15:19.007Z,87.45
2019-03-09T05:16:19.462Z,86.62
2019-03-09T05:17:19.934Z,87.04
2019-03-09T05:18:20.377Z,87.34
2019-03-09T05:19:20.830Z,87.34
2019-03-09T05:20:21.282Z,87.45
2019-03-09T05:21:21.719Z,87.55
2019-03-09T05:22:22.234Z,86.93
2019-03-09T05:23:22.678Z,86.46
2019-03-09T05:24:23.133Z,87.07
2019-03-09T05:25:23.566Z,87.04
2019-03-09T05:26:24.003Z,86.87
2019-03-09T05:27:24.456Z,86.87
2019-03-09T05:28:24.902Z,86.97
2019-03-09T05:29:25.335Z,87.28
2019-03-09T05:30:25.776Z,87.38
2019-03-09T05:31:26.264Z,87.49
2019-03-09T05:32:26.719Z,87.32
2019-03-09T05:33:27.204Z,87.52
2019-03-09T05:34:27.657Z,87.42
2019-03-09T05:35:28.403Z,87.84
2019-03-09T05:36:28.852Z,87.73
2019-03-09T05:37:29.305Z,87.84
2019-03-09T05:38:29.763Z,87.36
2019-03-09T05:39:30.213Z,87.94
2019-03-09T05:40:30.655Z,87.52
2019-03-09T05:41:31.096Z,87.52
2019-03-09T05:42:31.556Z,87.46
2019-03-09T05:43:31.991Z,87.84
2019-03-09T05:44:32.432Z,87.67
2019-03-09T05:45:32.886Z,87.77
2019-03-09T05:46:33.332Z,87.87
2019-03-09T05:47:33.798Z,87.57
2019-03-09T05:48:34.236Z,87.57
2019-03-09T05:49:34.682Z,88.08
2019-03-09T05:50:40.100Z,87.67
2019-03-09T05:51:40.533Z,87.94
2019-03-09T05:52:40.992Z,88.08
2019-03-09T05:53:41.431Z,87.98
2019-03-09T05:54:41.879Z,87.87
2019-03-09T05:55:42.321Z,88.08
2019-03-09T05:56:43.779Z,87.98
2019-03-09T05:57:44.231Z,88.18
2019-03-09T05:58:44.724Z,87.98
2019-03-09T05:59:45.187Z,88.29
2019-03-09T06:00:45.630Z,88.29
2019-03-09T06:01:46.077Z,88.29
2019-03-09T06:02:46.541Z,87.98
2019-03-09T06:03:46.979Z,87.87
2019-03-09T06:04:47.421Z,87.87
2019-03-09T06:05:47.931Z,88.18
2019-03-09T06:06:48.383Z,87.98
2019-03-09T06:07:49.151Z,88.02
2019-03-09T06:08:49.591Z,87.98
2019-03-09T06:09:50.039Z,87.87
2019-03-09T06:10:50.490Z,87.87
2019-03-09T06:11:50.926Z,87.57
2019-03-09T06:12:51.392Z,87.77
2019-03-09T06:13:51.830Z,87.77
2019-03-09T06:14:52.268Z,87.67
2019-03-09T06:15:52.705Z,87.26
2019-03-09T06:16:53.160Z,87.87
2019-03-09T06:17:53.611Z,87.73
2019-03-09T06:18:54.061Z,87.52
2019-03-09T06:19:54.525Z,87.52
2019-03-09T06:20:55.027Z,87.52
2019-03-09T06:21:55.476Z,87.46
2019-03-09T06:22:55.953Z,87.22
2019-03-09T06:23:56.395Z,87.22
2019-03-09T06:24:56.838Z,87.12
2019-03-09T06:25:57.286Z,86.70
2019-03-09T06:26:57.731Z,87.12
2019-03-09T06:27:58.311Z,87.32
2019-03-09T06:28:58.772Z,87.22
2019-03-09T06:29:59.217Z,87.18
2019-03-09T06:30:59.737Z,87.28
2019-03-09T06:32:00.194Z,86.97
2019-03-09T06:33:00.656Z,87.38
2019-03-09T06:34:01.098Z,87.18
2019-03-09T06:35:01.567Z,87.18
2019-03-09T06:36:02.103Z,87.28
2019-03-09T06:37:02.546Z,86.87
2019-03-09T06:38:03.017Z,86.25
2019-03-09T06:39:03.570Z,87.07
2019-03-09T06:40:04.024Z,87.04
2019-03-09T06:41:04.502Z,86.25
2019-03-09T06:42:04.942Z,86.35
2019-03-09T06:43:05.475Z,86.35
2019-03-09T06:44:10.881Z,86.52
2019-03-09T06:45:11.393Z,86.77
2019-03-09T06:46:11.905Z,86.42
2019-03-09T06:47:13.454Z,86.32
2019-03-09T06:48:13.939Z,86.11
2019-03-09T06:49:14.389Z,86.72
2019-03-09T06:50:14.830Z,86.42
2019-03-09T06:51:15.323Z,85.60
2019-03-09T06:52:15.764Z,85.70
2019-03-09T06:53:16.293Z,85.60
2019-03-09T06:54:16.735Z,85.70
2019-03-09T06:55:17.192Z,85.80
2019-03-09T06:56:17.956Z,86.21
2019-03-09T06:57:18.475Z,86.38
2019-03-09T06:58:18.936Z,85.97
2019-03-09T06:59:19.467Z,86.07
2019-03-09T07:00:19.903Z,85.97
2019-03-09T07:01:20.404Z,85.97
2019-03-09T07:02:21.607Z,86.17
2019-03-09T07:03:22.098Z,85.14
2019-03-09T07:04:22.572Z,85.35
2019-03-09T07:05:23.103Z,85.25
2019-03-09T07:06:23.555Z,85.66
2019-03-09T07:07:24.034Z,85.35
2019-03-09T07:08:24.480Z,85.62
2019-03-09T07:09:25.990Z,85.72
2019-03-09T07:10:26.438Z,85.52
2019-03-09T07:11:27.029Z,85.62
2019-03-09T07:12:27.462Z,85.89
2019-03-09T07:13:27.999Z,85.99
2019-03-09T07:14:28.440Z,84.86
2019-03-09T07:15:29.006Z,85.38
2019-03-09T07:16:29.451Z,84.86
2019-03-09T07:17:30.246Z,85.03
2019-03-09T07:18:30.713Z,84.82
2019-03-09T07:19:33.233Z,84.41
2019-03-09T07:20:33.675Z,84.41
2019-03-09T07:21:34.162Z,84.20
2019-03-09T07:22:34.606Z,84.10
2019-03-09T07:23:35.147Z,84.20
2019-03-09T07:24:35.583Z,84.00
2019-03-09T07:25:36.033Z,83.80
2019-03-09T07:26:36.473Z,83.80
2019-03-09T07:27:36.968Z,84.00
2019-03-09T07:28:37.509Z,84.20
2019-03-09T07:29:38.003Z,84.00
2019-03-09T07:30:38.459Z,83.80
2019-03-09T07:31:38.945Z,83.69
2019-03-09T07:32:39.391Z,83.80
2019-03-09T07:33:39.906Z,83.39
2019-03-09T07:34:40.345Z,83.80
2019-03-09T07:35:40.821Z,83.49
2019-03-09T07:36:41.279Z,83.55
2019-03-09T07:37:41.723Z,83.45
2019-03-09T07:38:42.169Z,83.55
2019-03-09T07:39:42.681Z,83.10
2019-03-09T07:40:43.118Z,82.90
2019-03-09T07:41:43.621Z,83.10
2019-03-09T07:42:44.064Z,82.69
2019-03-09T07:43:44.591Z,82.90
2019-03-09T07:44:45.025Z,82.59
2019-03-09T07:45:45.486Z,82.04
2019-03-09T07:46:45.922Z,81.98
2019-03-09T07:47:46.447Z,81.84
2019-03-09T07:48:46.911Z,81.43
2019-03-09T07:49:47.673Z,81.36
2019-03-09T07:50:48.131Z,81.43
2019-03-09T07:51:48.569Z,80.74
2019-03-09T07:52:49.007Z,80.74
2019-03-09T07:53:49.454Z,80.19
2019-03-09T07:54:51.969Z,81.15
2019-03-09T07:55:52.598Z,80.74
2019-03-09T07:56:53.045Z,80.44
2019-03-09T07:57:54.553Z,80.71
2019-03-09T07:58:55.017Z,80.81
2019-03-09T07:59:55.493Z,80.30
2019-03-09T08:00:55.942Z,80.51
2019-03-09T08:01:56.425Z,80.19
2019-03-09T08:02:56.874Z,80.71
2019-03-09T08:03:57.333Z,80.40
2019-03-09T08:04:57.784Z,79.99
2019-03-09T08:05:58.293Z,79.99
2019-03-09T08:06:58.733Z,79.75
2019-03-09T08:07:59.230Z,79.68
2019-03-09T08:08:59.689Z,79.68
2019-03-09T08:10:00.194Z,80.19
2019-03-09T08:11:00.805Z,79.68
2019-03-09T08:12:01.305Z,79.38
2019-03-09T08:13:01.742Z,79.48
2019-03-09T08:14:02.208Z,79.48
2019-03-09T08:15:02.642Z,79.68
2019-03-09T08:16:03.085Z,79.96
2019-03-09T08:17:03.526Z,79.79
2019-03-09T08:18:03.965Z,79.54
2019-03-09T08:19:04.440Z,79.64
2019-03-09T08:20:04.885Z,79.34
2019-03-09T08:21:05.368Z,79.30
2019-03-09T08:22:05.843Z,78.59
2019-03-09T08:23:06.398Z,78.24
2019-03-09T08:24:06.906Z,77.70
2019-03-09T08:25:07.571Z,77.90
2019-03-09T08:26:08.716Z,77.70
2019-03-09T08:27:09.158Z,77.59
2019-03-09T08:28:10.363Z,77.29
2019-03-09T08:29:10.851Z,76.78
2019-03-09T08:30:11.311Z,77.22
2019-03-09T08:31:11.774Z,76.67
2019-03-09T08:32:12.230Z,76.57
2019-03-09T08:33:12.722Z,76.88
2019-03-09T08:34:13.189Z,76.88
2019-03-09T08:35:13.642Z,77.19
2019-03-09T08:36:14.104Z,76.98
2019-03-09T08:37:14.550Z,76.88
2019-03-09T08:38:14.983Z,76.88
2019-03-09T08:39:15.451Z,76.16
2019-03-09T08:40:15.898Z,76.47
2019-03-09T08:41:16.353Z,76.78
2019-03-09T08:42:16.799Z,76.61
2019-03-09T08:43:17.256Z,76.50
2019-03-09T08:44:17.733Z,76.61
2019-03-09T08:45:18.216Z,76.78
2019-03-09T08:46:18.675Z,76.09
2019-03-09T08:47:19.157Z,76.30
2019-03-09T08:48:19.615Z,76.50
2019-03-09T08:49:20.114Z,75.96
2019-03-09T08:50:20.641Z,76.26
2019-03-09T08:51:21.117Z,76.37
2019-03-09T08:52:21.586Z,76.16
2019-03-09T08:53:22.070Z,76.06
2019-03-09T08:54:22.548Z,75.85
2019-03-09T08:55:23.015Z,75.75
2019-03-09T08:56:23.512Z,75.34
2019-03-09T08:57:23.995Z,75.96
2019-03-09T08:58:24.548Z,75.34
2019-03-09T08:59:25.071Z,75.41
2019-03-09T09:00:25.547Z,75.21
2019-03-09T09:01:26.075Z,74.49
2019-03-09T09:02:26.549Z,74.35
2019-03-09T09:03:27.042Z,74.25
2019-03-09T09:04:27.501Z,73.84
2019-03-09T09:05:27.956Z,73.94
2019-03-09T09:06:28.403Z,73.91
2019-03-09T09:07:28.847Z,73.50
2019-03-09T09:08:29.287Z,73.71
2019-03-09T09:09:29.764Z,74.22
2019-03-09T09:10:30.218Z,73.67
2019-03-09T09:11:30.670Z,73.27
2019-03-09T09:12:31.133Z,73.98
2019-03-09T09:13:31.584Z,73.16
2019-03-09T09:14:32.052Z,72.86
2019-03-09T09:15:32.501Z,72.96
2019-03-09T09:16:32.956Z,73.03
2019-03-09T09:17:33.405Z,73.03
2019-03-09T09:18:33.848Z,72.72
2019-03-09T09:19:34.323Z,72.38
2019-03-09T09:20:34.761Z,72.08
2019-03-09T09:21:35.210Z,71.87
2019-03-09T09:22:35.645Z,72.08
2019-03-09T09:23:36.087Z,72.28
2019-03-09T09:24:36.552Z,71.36
2019-03-09T09:25:37.015Z,71.87
2019-03-09T09:26:42.438Z,71.36
2019-03-09T09:27:42.878Z,71.43
2019-03-09T09:28:43.341Z,70.92
2019-03-09T09:29:43.899Z,71.33
2019-03-09T09:30:44.363Z,71.26
2019-03-09T09:31:44.813Z,71.33
2019-03-09T09:32:45.259Z,71.43
2019-03-09T09:33:45.691Z,71.15
2019-03-09T09:34:46.146Z,70.75
2019-03-09T09:35:46.730Z,71.36
2019-03-09T09:36:47.172Z,71.26
2019-03-09T09:37:47.627Z,71.77
2019-03-09T09:38:48.081Z,71.77
2019-03-09T09:39:48.567Z,71.23
2019-03-09T09:40:49.081Z,70.72
2019-03-09T09:41:49.519Z,70.75
2019-03-09T09:42:49.952Z,70.82
2019-03-09T09:43:50.407Z,70.72
2019-03-09T09:44:50.878Z,68.85
2019-03-09T09:45:51.324Z,69.36
2019-03-09T09:46:51.769Z,68.82
2019-03-09T09:47:52.208Z,68.62
2019-03-09T09:48:52.652Z,68.71
2019-03-09T09:49:53.121Z,68.92
2019-03-09T09:50:53.555Z,68.95
2019-03-09T09:51:53.997Z,69.15
2019-03-09T09:52:54.436Z,68.95
2019-03-09T09:53:54.877Z,69.06
2019-03-09T09:54:55.334Z,68.95
2019-03-09T09:55:55.772Z,68.24
2019-03-09T09:56:56.211Z,68.34
2019-03-09T09:57:56.679Z,68.34
2019-03-09T09:58:57.122Z,68.24
2019-03-09T09:59:57.584Z,68.57
2019-03-09T10:00:58.018Z,68.27
2019-03-09T10:01:58.464Z,68.98
2019-03-09T10:02:58.917Z,68.78
2019-03-09T10:03:59.407Z,68.88
2019-03-09T10:04:59.871Z,68.37
2019-03-09T10:06:00.319Z,69.73
2019-03-09T10:07:00.774Z,69.39
2019-03-09T10:08:01.229Z,68.61
2019-03-09T10:09:01.672Z,69.83
2019-03-09T10:10:02.397Z,68.61
2019-03-09T10:11:02.831Z,68.51
2019-03-09T10:12:03.278Z,69.53
2019-03-09T10:13:03.735Z,68.91
2019-03-09T10:14:04.185Z,69.42
2019-03-09T10:15:04.644Z,69.15
2019-03-09T10:16:05.089Z,69.15
2019-03-09T10:17:05.523Z,68.44
2019-03-09T10:18:05.974Z,69.96
2019-03-09T10:19:06.415Z,69.15
2019-03-09T10:20:06.888Z,69.86
2019-03-09T10:21:07.331Z,69.46
2019-03-09T10:22:07.782Z,70.04
2019-03-09T10:23:08.227Z,68.61
2019-03-09T10:24:08.698Z,69.02
2019-03-09T10:25:09.161Z,68.98
2019-03-09T10:26:09.613Z,68.37
2019-03-09T10:27:10.070Z,66.91
2019-03-09T10:28:10.512Z,67.12
2019-03-09T10:29:10.952Z,67.22
2019-03-09T10:30:11.411Z,66.71
2019-03-09T10:31:11.845Z,66.61
2019-03-09T10:32:12.284Z,66.82
2019-03-09T10:33:12.730Z,66.78
2019-03-09T10:34:13.172Z,66.47
2019-03-09T10:35:13.631Z,66.20
2019-03-09T10:36:14.079Z,66.07
2019-03-09T10:37:14.526Z,66.07
2019-03-09T10:38:14.964Z,66.07
2019-03-09T10:39:15.407Z,65.97
2019-03-09T10:40:15.863Z,65.97
2019-03-09T10:41:16.300Z,66.24
2019-03-09T10:42:16.756Z,66.35
2019-03-09T10:43:17.194Z,65.53
2019-03-09T10:44:17.646Z,65.02
2019-03-09T10:45:18.113Z,65.02
2019-03-09T10:46:18.568Z,64.81
2019-03-09T10:47:19.005Z,64.51
2019-03-09T10:48:19.445Z,64.89
2019-03-09T10:49:19.945Z,64.99
2019-03-09T10:50:20.422Z,64.07
2019-03-09T10:51:20.878Z,64.99
2019-03-09T10:52:21.325Z,64.58
2019-03-09T10:53:21.770Z,64.38
2019-03-09T10:54:22.223Z,64.48
2019-03-09T10:55:22.670Z,64.28
2019-03-09T10:56:23.114Z,64.07
2019-03-09T10:57:23.555Z,64.38
2019-03-09T10:58:23.991Z,63.77
2019-03-09T10:59:24.434Z,63.46
2019-03-09T11:00:24.903Z,64.18
2019-03-09T11:01:25.346Z,64.00
2019-03-09T11:02:25.793Z,64.31
2019-03-09T11:03:26.234Z,64.20
2019-03-09T11:04:27.892Z,64.81
2019-03-09T11:05:28.534Z,65.12
2019-03-09T11:06:29.980Z,64.41
2019-03-09T11:07:30.422Z,64.92
2019-03-09T11:08:31.917Z,64.20
2019-03-09T11:09:32.365Z,64.51
2019-03-09T11:10:32.825Z,65.02
2019-03-09T11:11:33.272Z,64.14
2019-03-09T11:12:34.730Z,64.00
2019-03-09T11:13:35.168Z,64.20
2019-03-09T11:14:35.615Z,64.51
2019-03-09T11:15:37.754Z,64.84
2019-03-09T11:16:39.436Z,65.36
2019-03-09T11:17:39.877Z,65.77
2019-03-09T11:18:42.324Z,65.25
2019-03-09T11:19:42.763Z,64.64
2019-03-09T11:20:44.218Z,64.64
2019-03-09T11:21:44.666Z,64.81
2019-03-09T11:22:45.115Z,64.61
2019-03-09T11:23:45.622Z,64.11
2019-03-09T11:24:46.166Z,64.31
2019-03-09T11:25:46.830Z,64.20
2019-03-09T11:26:47.293Z,64.20
2019-03-09T11:27:47.740Z,64.20
2019-03-09T11:28:48.182Z,64.31
2019-03-09T11:29:48.619Z,63.97
2019-03-09T11:30:49.133Z,63.94
2019-03-09T11:31:49.570Z,63.54
2019-03-09T11:32:52.090Z,62.82
2019-03-09T11:33:52.533Z,62.93
2019-03-09T11:34:53.981Z,62.82
2019-03-09T11:35:54.432Z,63.33
2019-03-09T11:36:54.883Z,62.49
2019-03-09T11:37:55.325Z,62.66
2019-03-09T11:38:55.771Z,61.69
2019-03-09T11:39:56.217Z,60.85
2019-03-09T11:40:59.731Z,60.72
2019-03-09T11:42:01.125Z,59.14
2019-03-09T11:43:01.562Z,58.74
2019-03-09T11:44:02.017Z,59.05
2019-03-09T11:45:03.498Z,58.47
2019-03-09T11:46:03.985Z,59.12
2019-03-09T11:47:04.425Z,59.26
2019-03-09T11:48:04.874Z,59.39
2019-03-09T11:49:06.325Z,60.36
2019-03-09T11:50:06.756Z,60.89
2019-03-09T11:51:07.229Z,61.20
2019-03-09T11:52:07.676Z,61.22
2019-03-09T11:53:08.128Z,61.63
2019-03-09T11:54:08.576Z,61.20
2019-03-09T11:55:09.024Z,61.40
2019-03-09T11:56:09.499Z,61.57
2019-03-09T11:57:09.949Z,61.14
2019-03-09T11:58:10.395Z,60.86
2019-03-09T11:59:11.851Z,61.21
2019-03-09T12:00:12.298Z,60.81
2019-03-09T12:01:12.780Z,60.17
2019-03-09T12:02:13.228Z,60.21
2019-03-09T12:03:15.680Z,59.34
2019-03-09T12:04:16.119Z,58.56
2019-03-09T12:05:18.571Z,57.65
2019-03-09T12:06:19.032Z,57.67
2019-03-09T12:07:19.477Z,57.29
2019-03-09T12:08:20.006Z,58.03
2019-03-09T12:09:21.448Z,57.86
2019-03-09T12:10:21.932Z,57.96
2019-03-09T12:11:23.466Z,57.48
2019-03-09T12:12:23.909Z,57.28
2019-03-09T12:13:24.363Z,58.01
2019-03-09T12:14:24.804Z,58.52
2019-03-09T12:15:25.253Z,57.91
2019-03-09T12:16:25.737Z,57.40
2019-03-09T12:17:27.191Z,57.71
2019-03-09T12:18:27.638Z,58.31
2019-03-09T12:19:28.113Z,57.30
2019-03-09T12:20:28.550Z,57.50
2019-03-09T12:21:29.026Z,57.28
2019-03-09T12:22:29.527Z,57.68
2019-03-09T12:23:29.980Z,58.09
2019-03-09T12:24:30.424Z,57.96
2019-03-09T12:25:30.879Z,57.71
2019-03-09T12:26:31.355Z,58.31
2019-03-09T12:27:31.795Z,59.05
2019-03-09T12:28:32.242Z,58.75
2019-03-09T12:29:32.683Z,59.36
2019-03-09T12:30:33.134Z,59.43
2019-03-09T12:31:33.610Z,59.00
2019-03-09T12:32:34.063Z,57.98
2019-03-09T12:33:34.507Z,58.52
2019-03-09T12:34:34.958Z,58.42
2019-03-09T12:35:35.409Z,57.50
2019-03-09T12:36:35.952Z,58.01
2019-03-09T12:37:43.039Z,57.48
2019-03-09T12:38:43.478Z,57.07
2019-03-09T12:39:43.920Z,56.23
2019-03-09T12:40:44.370Z,56.82
2019-03-09T12:41:44.837Z,55.07
2019-03-09T12:42:45.286Z,55.47
2019-03-09T12:43:45.806Z,55.35
2019-03-09T12:44:46.237Z,55.24
2019-03-09T12:45:46.690Z,55.04
2019-03-09T12:46:47.148Z,55.17
2019-03-09T12:47:47.589Z,54.86
2019-03-09T12:48:48.051Z,54.46
2019-03-09T12:49:48.500Z,53.52
2019-03-09T12:50:48.957Z,53.30
2019-03-09T12:51:49.421Z,53.09
2019-03-09T12:52:49.867Z,52.48
2019-03-09T12:53:50.334Z,52.19
2019-03-09T12:54:50.772Z,52.11
2019-03-09T12:55:51.230Z,52.94
2019-03-09T12:56:51.707Z,52.33
2019-03-09T12:57:53.184Z,52.76
2019-03-09T12:58:53.697Z,53.17
2019-03-09T12:59:54.184Z,52.94
2019-03-09T13:00:54.640Z,53.02
2019-03-09T13:01:55.145Z,52.28